Impacts METAR Board
IDs:

KMDW - Chicago/Midway Intl, IL, US

Updated at: 2200 UTC 25 May 2018
Potential Impact None Slight Moderate High
Time 25/10Z 25/11Z 25/12Z 25/13Z 25/14Z 25/15Z 25/16Z 25/17Z 25/18Z 25/19Z 25/20Z 25/21Z 25/22Z
Temp68 68 71 75 79 82 84 86 87 88 88 89 88
Dewpt52 53 55 56 59 60 61 61 60 58 58 58 57
Altim29.96 29.96 29.95 29.95 29.95 29.93 29.92 29.91 29.89 29.86 29.83 29.80 29.79
VIS10 10 10 10 10 10 10 10 10 10 10 10 10
CIG-- -- -- -- -- -- -- 250 -- 250 200 200 250
CoverFEWFEWFEWFEWFEWFEWSCTBKNSCTBKNBKNBKNOVC
FltCatVFRVFRVFRVFRVFRVFRVFRVFRVFRVFRVFRVFRVFR
WX--------------------------
WDir200210210220220230220270270200220190250
WSpd5 6 7 8 8 8 8 10 9 8 5 7 8
WGst-- -- -- -- -- -- -- 15 -- 17 -- -- --
Raw hourly METARs
KMDW 250953Z 20005KT 10SM FEW250 20/11 A2996 RMK AO2 SLP137 T02000111
KMDW 251053Z 21006KT 10SM FEW250 20/12 A2996 RMK AO2 SLP135 T02000117
KMDW 251153Z 21007KT 10SM FEW250 22/13 A2995 RMK AO2 SLP132 T02170128 10228 20200 56010
KMDW 251253Z 22008KT 10SM FEW250 24/13 A2995 RMK AO2 SLP133 T02390133
KMDW 251353Z 22008KT 10SM FEW250 26/15 A2995 RMK AO2 SLP130 T02610150
KMDW 251453Z 23008KT 10SM FEW250 28/16 A2993 RMK AO2 SLP125 T02780156 58007
KMDW 251553Z 22008KT 10SM SCT250 29/16 A2992 RMK AO2 SLP121 T02890161
KMDW 251653Z 27010G15KT 10SM FEW060 SCT200 BKN250 30/16 A2991 RMK AO2 SLP117 T03000161
KMDW 251753Z 27009KT 10SM SCT065 SCT250 31/16 A2989 RMK AO2 SLP110 T03060156 10311 20217 58014
KMDW 251853Z 20008G17KT 10SM SCT070 SCT200 BKN250 31/14 A2986 RMK AO2 SLP100 T03110144
KMDW 251953Z 22005KT 10SM SCT070 BKN200 BKN250 31/14 A2983 RMK AO2 SLP091 T03110144
KMDW 252053Z 19007KT 10SM SCT075 BKN200 BKN250 32/14 A2980 RMK AO2 SLP080 T03170144 58030
KMDW 252153Z 25008KT 10SM SCT075 SCT170 OVC250 31/14 A2979 RMK AO2 SLP075 T03110139



Page loaded:  22:31 UTC  |   03:31 PM Pacific  |   04:31 PM Mountain  |   05:31 PM Central  |   06:31 PM Eastern

 

ADVISORIES

FORECASTS

FORECASTS

OBSERVATIONS

USER TOOLS

ABOUT US